sensor_id;sensor_type;location;lat;lon;timestamp;P1;durP1;ratioP1;P2;durP2;ratioP2
26594;SDS011;14238;49.496;8.154;2023-05-23T00:00:42;39.73;;;35.63;;
26594;SDS011;14238;49.496;8.154;2023-05-23T00:03:08;41.67;;;37.57;;
26594;SDS011;14238;49.496;8.154;2023-05-23T00:05:35;41.17;;;36.90;;
26594;SDS011;14238;49.496;8.154;2023-05-23T00:08:00;41.33;;;36.97;;
26594;SDS011;14238;49.496;8.154;2023-05-23T00:10:26;40.93;;;37.43;;
26594;SDS011;14238;49.496;8.154;2023-05-23T00:12:52;39.57;;;35.77;;
26594;SDS011;14238;49.496;8.154;2023-05-23T00:15:17;41.73;;;37.93;;
26594;SDS011;14238;49.496;8.154;2023-05-23T00:17:43;39.93;;;35.93;;
26594;SDS011;14238;49.496;8.154;2023-05-23T00:20:09;39.87;;;35.73;;
26594;SDS011;14238;49.496;8.154;2023-05-23T00:22:36;38.83;;;35.17;;
26594;SDS011;14238;49.496;8.154;2023-05-23T00:25:07;39.27;;;35.57;;
26594;SDS011;14238;49.496;8.154;2023-05-23T00:27:33;38.67;;;34.57;;
26594;SDS011;14238;49.496;8.154;2023-05-23T00:29:59;36.97;;;33.47;;
26594;SDS011;14238;49.496;8.154;2023-05-23T00:32:24;38.60;;;34.90;;
26594;SDS011;14238;49.496;8.154;2023-05-23T00:34:50;41.03;;;37.13;;
26594;SDS011;14238;49.496;8.154;2023-05-23T00:37:18;41.67;;;37.70;;
26594;SDS011;14238;49.496;8.154;2023-05-23T00:39:44;39.97;;;36.10;;
26594;SDS011;14238;49.496;8.154;2023-05-23T00:42:10;38.73;;;35.07;;
26594;SDS011;14238;49.496;8.154;2023-05-23T00:44:35;40.03;;;36.13;;
26594;SDS011;14238;49.496;8.154;2023-05-23T00:47:01;40.93;;;36.80;;
26594;SDS011;14238;49.496;8.154;2023-05-23T00:49:27;39.90;;;36.00;;
26594;SDS011;14238;49.496;8.154;2023-05-23T00:51:53;38.60;;;34.50;;
26594;SDS011;14238;49.496;8.154;2023-05-23T00:54:25;42.30;;;38.00;;
26594;SDS011;14238;49.496;8.154;2023-05-23T00:56:55;41.60;;;37.80;;
26594;SDS011;14238;49.496;8.154;2023-05-23T00:59:21;40.03;;;36.33;;
26594;SDS011;14238;49.496;8.154;2023-05-23T01:01:49;41.40;;;37.47;;
26594;SDS011;14238;49.496;8.154;2023-05-23T01:04:16;42.23;;;38.13;;
26594;SDS011;14238;49.496;8.154;2023-05-23T01:06:43;42.53;;;38.63;;
26594;SDS011;14238;49.496;8.154;2023-05-23T01:09:17;41.47;;;37.77;;
26594;SDS011;14238;49.496;8.154;2023-05-23T01:11:49;41.60;;;37.77;;
26594;SDS011;14238;49.496;8.154;2023-05-23T01:14:28;41.63;;;37.80;;
26594;SDS011;14238;49.496;8.154;2023-05-23T01:17:03;43.53;;;39.53;;
26594;SDS011;14238;49.496;8.154;2023-05-23T01:19:54;42.57;;;38.57;;
26594;SDS011;14238;49.496;8.154;2023-05-23T01:25:19;41.37;;;37.70;;
26594;SDS011;14238;49.496;8.154;2023-05-23T01:28:04;41.50;;;37.70;;
26594;SDS011;14238;49.496;8.154;2023-05-23T01:30:33;41.73;;;38.00;;
26594;SDS011;14238;49.496;8.154;2023-05-23T01:33:03;39.30;;;35.67;;
26594;SDS011;14238;49.496;8.154;2023-05-23T01:35:29;41.53;;;37.60;;
26594;SDS011;14238;49.496;8.154;2023-05-23T01:37:56;41.87;;;37.87;;
26594;SDS011;14238;49.496;8.154;2023-05-23T01:40:22;46.40;;;41.90;;
26594;SDS011;14238;49.496;8.154;2023-05-23T01:42:48;43.40;;;39.30;;
26594;SDS011;14238;49.496;8.154;2023-05-23T01:45:15;44.00;;;40.00;;
26594;SDS011;14238;49.496;8.154;2023-05-23T01:47:41;39.93;;;36.30;;
26594;SDS011;14238;49.496;8.154;2023-05-23T01:50:08;41.80;;;37.80;;
26594;SDS011;14238;49.496;8.154;2023-05-23T01:52:35;43.33;;;39.33;;
26594;SDS011;14238;49.496;8.154;2023-05-23T01:55:01;41.53;;;37.60;;
26594;SDS011;14238;49.496;8.154;2023-05-23T01:57:33;40.57;;;36.77;;
26594;SDS011;14238;49.496;8.154;2023-05-23T02:00:00;41.77;;;38.00;;
26594;SDS011;14238;49.496;8.154;2023-05-23T02:02:26;40.60;;;37.07;;
26594;SDS011;14238;49.496;8.154;2023-05-23T02:04:52;41.30;;;37.60;;
26594;SDS011;14238;49.496;8.154;2023-05-23T02:07:18;40.50;;;36.80;;
26594;SDS011;14238;49.496;8.154;2023-05-23T02:09:47;39.87;;;36.10;;
26594;SDS011;14238;49.496;8.154;2023-05-23T02:12:13;43.17;;;39.17;;
26594;SDS011;14238;49.496;8.154;2023-05-23T02:14:38;40.90;;;37.00;;
26594;SDS011;14238;49.496;8.154;2023-05-23T02:17:06;39.47;;;35.93;;
26594;SDS011;14238;49.496;8.154;2023-05-23T02:19:34;38.60;;;35.30;;
26594;SDS011;14238;49.496;8.154;2023-05-23T02:21:59;40.67;;;36.80;;
26594;SDS011;14238;49.496;8.154;2023-05-23T02:24:25;37.67;;;34.40;;
26594;SDS011;14238;49.496;8.154;2023-05-23T02:26:51;38.50;;;34.80;;
26594;SDS011;14238;49.496;8.154;2023-05-23T02:29:17;37.00;;;33.70;;
26594;SDS011;14238;49.496;8.154;2023-05-23T02:31:42;38.47;;;34.93;;
26594;SDS011;14238;49.496;8.154;2023-05-23T02:34:08;35.47;;;32.43;;
26594;SDS011;14238;49.496;8.154;2023-05-23T02:36:33;38.03;;;34.73;;
26594;SDS011;14238;49.496;8.154;2023-05-23T02:39:01;38.20;;;34.70;;
26594;SDS011;14238;49.496;8.154;2023-05-23T02:41:27;39.33;;;35.70;;
26594;SDS011;14238;49.496;8.154;2023-05-23T02:43:52;37.70;;;34.47;;
26594;SDS011;14238;49.496;8.154;2023-05-23T02:46:18;38.07;;;34.47;;
26594;SDS011;14238;49.496;8.154;2023-05-23T02:48:43;37.77;;;34.30;;
26594;SDS011;14238;49.496;8.154;2023-05-23T02:51:09;39.73;;;36.03;;
26594;SDS011;14238;49.496;8.154;2023-05-23T02:53:34;38.47;;;34.90;;
26594;SDS011;14238;49.496;8.154;2023-05-23T02:56:00;38.70;;;35.30;;
26594;SDS011;14238;49.496;8.154;2023-05-23T02:58:26;39.60;;;36.20;;
26594;SDS011;14238;49.496;8.154;2023-05-23T03:00:51;40.90;;;36.90;;
26594;SDS011;14238;49.496;8.154;2023-05-23T03:03:17;39.20;;;35.73;;
26594;SDS011;14238;49.496;8.154;2023-05-23T03:05:42;39.17;;;35.37;;
26594;SDS011;14238;49.496;8.154;2023-05-23T03:08:08;41.47;;;37.47;;
26594;SDS011;14238;49.496;8.154;2023-05-23T03:10:33;40.00;;;36.30;;
26594;SDS011;14238;49.496;8.154;2023-05-23T03:12:59;38.93;;;35.37;;
26594;SDS011;14238;49.496;8.154;2023-05-23T03:15:24;38.53;;;35.13;;
26594;SDS011;14238;49.496;8.154;2023-05-23T03:17:50;37.67;;;34.17;;
26594;SDS011;14238;49.496;8.154;2023-05-23T03:20:15;37.57;;;34.07;;
26594;SDS011;14238;49.496;8.154;2023-05-23T03:22:41;35.80;;;32.80;;
26594;SDS011;14238;49.496;8.154;2023-05-23T03:25:09;36.53;;;33.27;;
26594;SDS011;14238;49.496;8.154;2023-05-23T03:27:34;39.40;;;35.80;;
26594;SDS011;14238;49.496;8.154;2023-05-23T03:30:01;37.03;;;33.73;;
26594;SDS011;14238;49.496;8.154;2023-05-23T03:32:27;35.07;;;31.67;;
26594;SDS011;14238;49.496;8.154;2023-05-23T03:34:53;36.10;;;33.00;;
26594;SDS011;14238;49.496;8.154;2023-05-23T03:37:18;33.77;;;30.70;;
26594;SDS011;14238;49.496;8.154;2023-05-23T03:39:44;32.50;;;29.70;;
26594;SDS011;14238;49.496;8.154;2023-05-23T03:42:10;31.57;;;28.67;;
26594;SDS011;14238;49.496;8.154;2023-05-23T03:44:36;31.00;;;28.20;;
26594;SDS011;14238;49.496;8.154;2023-05-23T03:47:01;30.37;;;27.83;;
26594;SDS011;14238;49.496;8.154;2023-05-23T03:49:27;31.60;;;28.53;;
26594;SDS011;14238;49.496;8.154;2023-05-23T03:51:52;30.20;;;27.40;;
26594;SDS011;14238;49.496;8.154;2023-05-23T03:54:18;30.87;;;28.03;;
26594;SDS011;14238;49.496;8.154;2023-05-23T03:56:43;29.43;;;26.93;;
26594;SDS011;14238;49.496;8.154;2023-05-23T03:59:09;29.40;;;26.47;;
26594;SDS011;14238;49.496;8.154;2023-05-23T04:01:34;31.00;;;28.13;;
26594;SDS011;14238;49.496;8.154;2023-05-23T04:04:00;28.20;;;25.70;;
26594;SDS011;14238;49.496;8.154;2023-05-23T04:06:25;30.87;;;27.83;;
26594;SDS011;14238;49.496;8.154;2023-05-23T04:08:54;30.77;;;27.97;;
26594;SDS011;14238;49.496;8.154;2023-05-23T04:11:19;30.90;;;28.30;;
26594;SDS011;14238;49.496;8.154;2023-05-23T04:13:46;29.83;;;27.07;;
26594;SDS011;14238;49.496;8.154;2023-05-23T04:16:11;30.10;;;27.50;;
26594;SDS011;14238;49.496;8.154;2023-05-23T04:18:37;30.23;;;27.30;;
26594;SDS011;14238;49.496;8.154;2023-05-23T04:21:03;31.27;;;28.53;;
26594;SDS011;14238;49.496;8.154;2023-05-23T04:23:28;31.50;;;28.60;;
26594;SDS011;14238;49.496;8.154;2023-05-23T04:25:54;30.47;;;27.80;;
26594;SDS011;14238;49.496;8.154;2023-05-23T04:28:21;28.80;;;26.30;;
26594;SDS011;14238;49.496;8.154;2023-05-23T04:30:47;27.93;;;25.60;;
26594;SDS011;14238;49.496;8.154;2023-05-23T04:33:17;26.43;;;24.03;;
26594;SDS011;14238;49.496;8.154;2023-05-23T04:35:42;25.63;;;23.30;;
26594;SDS011;14238;49.496;8.154;2023-05-23T04:38:09;25.97;;;23.43;;
26594;SDS011;14238;49.496;8.154;2023-05-23T04:40:34;25.77;;;23.47;;
26594;SDS011;14238;49.496;8.154;2023-05-23T04:43:00;26.70;;;24.30;;
26594;SDS011;14238;49.496;8.154;2023-05-23T04:45:26;28.13;;;25.60;;
26594;SDS011;14238;49.496;8.154;2023-05-23T04:47:52;24.30;;;22.10;;
26594;SDS011;14238;49.496;8.154;2023-05-23T04:50:19;23.37;;;21.27;;
26594;SDS011;14238;49.496;8.154;2023-05-23T04:52:46;22.30;;;20.50;;
26594;SDS011;14238;49.496;8.154;2023-05-23T04:55:12;21.60;;;19.80;;
26594;SDS011;14238;49.496;8.154;2023-05-23T04:57:38;19.97;;;18.27;;
26594;SDS011;14238;49.496;8.154;2023-05-23T05:00:04;23.07;;;20.83;;
26594;SDS011;14238;49.496;8.154;2023-05-23T05:02:34;21.90;;;19.70;;
26594;SDS011;14238;49.496;8.154;2023-05-23T05:05:00;20.57;;;18.87;;
26594;SDS011;14238;49.496;8.154;2023-05-23T05:07:26;20.83;;;19.07;;
26594;SDS011;14238;49.496;8.154;2023-05-23T05:09:53;20.80;;;19.00;;
26594;SDS011;14238;49.496;8.154;2023-05-23T05:12:18;19.37;;;17.77;;
26594;SDS011;14238;49.496;8.154;2023-05-23T05:14:44;17.70;;;16.33;;
26594;SDS011;14238;49.496;8.154;2023-05-23T05:17:09;17.77;;;16.37;;
26594;SDS011;14238;49.496;8.154;2023-05-23T05:19:35;17.60;;;15.97;;
26594;SDS011;14238;49.496;8.154;2023-05-23T05:22:01;18.27;;;16.67;;
26594;SDS011;14238;49.496;8.154;2023-05-23T05:24:26;17.67;;;15.90;;
26594;SDS011;14238;49.496;8.154;2023-05-23T05:26:53;16.30;;;15.00;;
26594;SDS011;14238;49.496;8.154;2023-05-23T05:29:18;16.97;;;15.37;;
26594;SDS011;14238;49.496;8.154;2023-05-23T05:31:44;17.63;;;16.03;;
26594;SDS011;14238;49.496;8.154;2023-05-23T05:34:10;16.70;;;15.10;;
26594;SDS011;14238;49.496;8.154;2023-05-23T05:36:35;15.97;;;14.57;;
26594;SDS011;14238;49.496;8.154;2023-05-23T05:39:01;15.43;;;14.17;;
26594;SDS011;14238;49.496;8.154;2023-05-23T05:41:26;15.50;;;14.30;;
26594;SDS011;14238;49.496;8.154;2023-05-23T05:43:52;16.17;;;14.47;;
26594;SDS011;14238;49.496;8.154;2023-05-23T05:46:17;13.90;;;12.80;;
26594;SDS011;14238;49.496;8.154;2023-05-23T05:48:43;15.10;;;13.90;;
26594;SDS011;14238;49.496;8.154;2023-05-23T05:51:09;14.60;;;13.30;;
26594;SDS011;14238;49.496;8.154;2023-05-23T05:53:35;14.80;;;13.70;;
26594;SDS011;14238;49.496;8.154;2023-05-23T05:56:00;15.13;;;12.37;;
26594;SDS011;14238;49.496;8.154;2023-05-23T05:58:26;14.30;;;13.10;;
26594;SDS011;14238;49.496;8.154;2023-05-23T06:00:52;15.37;;;14.00;;
26594;SDS011;14238;49.496;8.154;2023-05-23T06:03:18;14.13;;;12.93;;
26594;SDS011;14238;49.496;8.154;2023-05-23T06:05:44;15.03;;;13.73;;
26594;SDS011;14238;49.496;8.154;2023-05-23T06:08:09;15.37;;;13.97;;
26594;SDS011;14238;49.496;8.154;2023-05-23T06:10:36;15.10;;;13.80;;
26594;SDS011;14238;49.496;8.154;2023-05-23T06:13:03;14.73;;;13.50;;
26594;SDS011;14238;49.496;8.154;2023-05-23T06:15:29;17.10;;;15.70;;
26594;SDS011;14238;49.496;8.154;2023-05-23T06:17:55;18.30;;;16.47;;
26594;SDS011;14238;49.496;8.154;2023-05-23T06:20:21;18.60;;;17.00;;
26594;SDS011;14238;49.496;8.154;2023-05-23T06:22:46;20.87;;;18.77;;
26594;SDS011;14238;49.496;8.154;2023-05-23T06:25:12;18.87;;;17.07;;
26594;SDS011;14238;49.496;8.154;2023-05-23T06:27:38;18.53;;;16.83;;
26594;SDS011;14238;49.496;8.154;2023-05-23T06:30:03;18.83;;;17.13;;
26594;SDS011;14238;49.496;8.154;2023-05-23T06:32:30;19.40;;;17.60;;
26594;SDS011;14238;49.496;8.154;2023-05-23T06:34:55;16.80;;;15.40;;
26594;SDS011;14238;49.496;8.154;2023-05-23T06:37:21;18.07;;;16.27;;
26594;SDS011;14238;49.496;8.154;2023-05-23T06:39:46;19.80;;;18.00;;
26594;SDS011;14238;49.496;8.154;2023-05-23T06:42:12;19.73;;;17.67;;
26594;SDS011;14238;49.496;8.154;2023-05-23T06:44:37;19.00;;;17.23;;
26594;SDS011;14238;49.496;8.154;2023-05-23T06:47:03;21.93;;;18.53;;
26594;SDS011;14238;49.496;8.154;2023-05-23T06:49:28;18.70;;;16.70;;
26594;SDS011;14238;49.496;8.154;2023-05-23T06:51:54;20.27;;;18.37;;
26594;SDS011;14238;49.496;8.154;2023-05-23T06:54:19;18.30;;;16.70;;
26594;SDS011;14238;49.496;8.154;2023-05-23T06:56:45;17.70;;;16.00;;
26594;SDS011;14238;49.496;8.154;2023-05-23T06:59:10;13.67;;;12.40;;
26594;SDS011;14238;49.496;8.154;2023-05-23T07:01:36;12.73;;;11.70;;
26594;SDS011;14238;49.496;8.154;2023-05-23T07:04:01;10.90;;;10.10;;
26594;SDS011;14238;49.496;8.154;2023-05-23T07:06:27;10.57;;;9.53;;
26594;SDS011;14238;49.496;8.154;2023-05-23T07:08:53;9.43;;;8.63;;
26594;SDS011;14238;49.496;8.154;2023-05-23T07:11:21;9.33;;;8.50;;
26594;SDS011;14238;49.496;8.154;2023-05-23T07:13:47;9.63;;;8.73;;
26594;SDS011;14238;49.496;8.154;2023-05-23T07:16:12;8.13;;;7.57;;
26594;SDS011;14238;49.496;8.154;2023-05-23T07:18:38;7.93;;;7.33;;
26594;SDS011;14238;49.496;8.154;2023-05-23T07:21:03;8.47;;;7.67;;
26594;SDS011;14238;49.496;8.154;2023-05-23T07:23:32;7.93;;;7.20;;
26594;SDS011;14238;49.496;8.154;2023-05-23T07:26:01;7.40;;;6.90;;
26594;SDS011;14238;49.496;8.154;2023-05-23T07:28:27;7.20;;;6.70;;
26594;SDS011;14238;49.496;8.154;2023-05-23T07:30:52;8.17;;;7.47;;
26594;SDS011;14238;49.496;8.154;2023-05-23T07:33:18;8.40;;;7.80;;
26594;SDS011;14238;49.496;8.154;2023-05-23T07:35:44;8.63;;;7.80;;
26594;SDS011;14238;49.496;8.154;2023-05-23T07:38:10;8.33;;;7.80;;
26594;SDS011;14238;49.496;8.154;2023-05-23T07:40:35;8.17;;;7.47;;
26594;SDS011;14238;49.496;8.154;2023-05-23T07:43:02;8.07;;;7.47;;
26594;SDS011;14238;49.496;8.154;2023-05-23T07:45:28;6.57;;;6.17;;
26594;SDS011;14238;49.496;8.154;2023-05-23T07:47:53;6.50;;;6.10;;
26594;SDS011;14238;49.496;8.154;2023-05-23T07:50:19;7.90;;;7.40;;
26594;SDS011;14238;49.496;8.154;2023-05-23T07:52:45;7.23;;;6.70;;
26594;SDS011;14238;49.496;8.154;2023-05-23T07:55:10;7.30;;;6.70;;
26594;SDS011;14238;49.496;8.154;2023-05-23T07:57:36;8.10;;;7.50;;
26594;SDS011;14238;49.496;8.154;2023-05-23T08:00:02;7.07;;;6.57;;
26594;SDS011;14238;49.496;8.154;2023-05-23T08:02:29;7.80;;;6.93;;
26594;SDS011;14238;49.496;8.154;2023-05-23T08:04:54;7.37;;;6.77;;
26594;SDS011;14238;49.496;8.154;2023-05-23T08:07:20;7.03;;;6.53;;
26594;SDS011;14238;49.496;8.154;2023-05-23T08:09:46;7.33;;;6.83;;
26594;SDS011;14238;49.496;8.154;2023-05-23T08:12:12;7.63;;;7.13;;
26594;SDS011;14238;49.496;8.154;2023-05-23T08:14:38;8.10;;;7.50;;
26594;SDS011;14238;49.496;8.154;2023-05-23T08:17:03;6.53;;;6.13;;
26594;SDS011;14238;49.496;8.154;2023-05-23T08:19:29;7.13;;;6.50;;
26594;SDS011;14238;49.496;8.154;2023-05-23T08:21:54;6.60;;;6.20;;
26594;SDS011;14238;49.496;8.154;2023-05-23T08:24:20;7.53;;;7.00;;
26594;SDS011;14238;49.496;8.154;2023-05-23T08:26:46;7.13;;;6.63;;
26594;SDS011;14238;49.496;8.154;2023-05-23T08:29:12;6.93;;;6.43;;
26594;SDS011;14238;49.496;8.154;2023-05-23T08:31:38;6.70;;;6.20;;
26594;SDS011;14238;49.496;8.154;2023-05-23T08:34:03;6.90;;;6.40;;
26594;SDS011;14238;49.496;8.154;2023-05-23T08:36:29;6.87;;;6.27;;
26594;SDS011;14238;49.496;8.154;2023-05-23T08:38:58;6.97;;;6.57;;
26594;SDS011;14238;49.496;8.154;2023-05-23T08:41:24;5.60;;;5.20;;
26594;SDS011;14238;49.496;8.154;2023-05-23T08:43:51;4.73;;;4.40;;
26594;SDS011;14238;49.496;8.154;2023-05-23T08:46:17;5.37;;;4.83;;
26594;SDS011;14238;49.496;8.154;2023-05-23T08:48:43;4.80;;;4.57;;
26594;SDS011;14238;49.496;8.154;2023-05-23T08:51:15;4.27;;;4.07;;
26594;SDS011;14238;49.496;8.154;2023-05-23T08:53:44;4.67;;;4.37;;
26594;SDS011;14238;49.496;8.154;2023-05-23T08:56:12;5.13;;;4.83;;
26594;SDS011;14238;49.496;8.154;2023-05-23T08:58:38;5.00;;;4.60;;
26594;SDS011;14238;49.496;8.154;2023-05-23T09:01:07;4.50;;;4.30;;
26594;SDS011;14238;49.496;8.154;2023-05-23T09:03:38;4.97;;;4.57;;
26594;SDS011;14238;49.496;8.154;2023-05-23T09:06:07;4.43;;;4.20;;
26594;SDS011;14238;49.496;8.154;2023-05-23T09:08:33;4.70;;;4.40;;
26594;SDS011;14238;49.496;8.154;2023-05-23T09:11:00;5.40;;;5.10;;
26594;SDS011;14238;49.496;8.154;2023-05-23T09:13:30;5.30;;;4.80;;
26594;SDS011;14238;49.496;8.154;2023-05-23T09:16:04;5.00;;;4.60;;
26594;SDS011;14238;49.496;8.154;2023-05-23T09:18:35;5.83;;;5.43;;
26594;SDS011;14238;49.496;8.154;2023-05-23T09:21:03;5.23;;;4.83;;
26594;SDS011;14238;49.496;8.154;2023-05-23T09:23:29;5.63;;;5.33;;
26594;SDS011;14238;49.496;8.154;2023-05-23T09:25:56;4.97;;;4.60;;
26594;SDS011;14238;49.496;8.154;2023-05-23T09:28:25;5.40;;;5.10;;
26594;SDS011;14238;49.496;8.154;2023-05-23T09:31:23;5.17;;;4.77;;
26594;SDS011;14238;49.496;8.154;2023-05-23T09:33:44;4.20;;;4.00;;
26594;SDS011;14238;49.496;8.154;2023-05-23T09:36:12;4.60;;;4.30;;
26594;SDS011;14238;49.496;8.154;2023-05-23T09:38:38;4.77;;;4.47;;
26594;SDS011;14238;49.496;8.154;2023-05-23T09:41:04;4.83;;;4.43;;
26594;SDS011;14238;49.496;8.154;2023-05-23T09:43:30;5.43;;;5.03;;
26594;SDS011;14238;49.496;8.154;2023-05-23T09:46:09;4.10;;;3.90;;
26594;SDS011;14238;49.496;8.154;2023-05-23T09:48:35;4.70;;;4.30;;
26594;SDS011;14238;49.496;8.154;2023-05-23T09:51:04;4.50;;;4.27;;
26594;SDS011;14238;49.496;8.154;2023-05-23T09:53:31;5.17;;;4.70;;
26594;SDS011;14238;49.496;8.154;2023-05-23T09:56:00;5.57;;;5.07;;
26594;SDS011;14238;49.496;8.154;2023-05-23T09:58:27;5.17;;;4.70;;
26594;SDS011;14238;49.496;8.154;2023-05-23T10:00:55;4.70;;;4.40;;
26594;SDS011;14238;49.496;8.154;2023-05-23T10:06:07;6.10;;;5.50;;
26594;SDS011;14238;49.496;8.154;2023-05-23T10:08:42;5.60;;;5.30;;
26594;SDS011;14238;49.496;8.154;2023-05-23T10:13:48;5.60;;;5.20;;
26594;SDS011;14238;49.496;8.154;2023-05-23T10:16:18;5.83;;;5.30;;
26594;SDS011;14238;49.496;8.154;2023-05-23T10:18:59;5.23;;;4.83;;
26594;SDS011;14238;49.496;8.154;2023-05-23T10:21:34;5.40;;;5.00;;
26594;SDS011;14238;49.496;8.154;2023-05-23T10:24:09;4.80;;;4.50;;
26594;SDS011;14238;49.496;8.154;2023-05-23T10:26:36;4.60;;;4.40;;
26594;SDS011;14238;49.496;8.154;2023-05-23T10:29:01;5.57;;;5.23;;
26594;SDS011;14238;49.496;8.154;2023-05-23T10:31:27;5.63;;;5.33;;
26594;SDS011;14238;49.496;8.154;2023-05-23T10:33:55;5.73;;;5.33;;
26594;SDS011;14238;49.496;8.154;2023-05-23T10:36:42;5.40;;;5.10;;
26594;SDS011;14238;49.496;8.154;2023-05-23T10:39:32;6.80;;;6.20;;
26594;SDS011;14238;49.496;8.154;2023-05-23T10:42:44;5.73;;;5.43;;
26594;SDS011;14238;49.496;8.154;2023-05-23T10:45:20;6.53;;;6.13;;
26594;SDS011;14238;49.496;8.154;2023-05-23T10:47:47;6.43;;;6.03;;
26594;SDS011;14238;49.496;8.154;2023-05-23T10:50:15;6.90;;;6.50;;
26594;SDS011;14238;49.496;8.154;2023-05-23T10:52:55;7.10;;;6.60;;
26594;SDS011;14238;49.496;8.154;2023-05-23T10:55:21;6.47;;;6.07;;
26594;SDS011;14238;49.496;8.154;2023-05-23T10:58:07;7.30;;;6.80;;
26594;SDS011;14238;49.496;8.154;2023-05-23T11:00:45;7.60;;;7.07;;
26594;SDS011;14238;49.496;8.154;2023-05-23T11:03:15;7.70;;;7.03;;
26594;SDS011;14238;49.496;8.154;2023-05-23T11:05:46;8.27;;;7.73;;
26594;SDS011;14238;49.496;8.154;2023-05-23T11:08:16;7.80;;;7.30;;
26594;SDS011;14238;49.496;8.154;2023-05-23T11:11:00;7.90;;;7.40;;
26594;SDS011;14238;49.496;8.154;2023-05-23T11:16:25;8.50;;;7.60;;
26594;SDS011;14238;49.496;8.154;2023-05-23T11:19:09;10.20;;;9.30;;
26594;SDS011;14238;49.496;8.154;2023-05-23T11:21:44;9.03;;;8.40;;
26594;SDS011;14238;49.496;8.154;2023-05-23T11:24:11;10.20;;;8.87;;
26594;SDS011;14238;49.496;8.154;2023-05-23T11:26:36;10.03;;;9.17;;
26594;SDS011;14238;49.496;8.154;2023-05-23T11:29:02;9.83;;;9.03;;
26594;SDS011;14238;49.496;8.154;2023-05-23T11:31:36;9.90;;;9.20;;
26594;SDS011;14238;49.496;8.154;2023-05-23T11:34:02;9.60;;;8.90;;
26594;SDS011;14238;49.496;8.154;2023-05-23T11:36:28;10.20;;;9.40;;
26594;SDS011;14238;49.496;8.154;2023-05-23T11:38:55;9.83;;;9.10;;
26594;SDS011;14238;49.496;8.154;2023-05-23T11:41:26;9.77;;;8.97;;
26594;SDS011;14238;49.496;8.154;2023-05-23T11:43:51;10.77;;;9.67;;
26594;SDS011;14238;49.496;8.154;2023-05-23T11:46:17;9.53;;;8.83;;
26594;SDS011;14238;49.496;8.154;2023-05-23T11:48:46;9.90;;;9.30;;
26594;SDS011;14238;49.496;8.154;2023-05-23T11:51:12;10.17;;;9.37;;
26594;SDS011;14238;49.496;8.154;2023-05-23T11:53:38;8.87;;;8.23;;
26594;SDS011;14238;49.496;8.154;2023-05-23T11:56:04;8.40;;;7.80;;
26594;SDS011;14238;49.496;8.154;2023-05-23T11:58:32;8.67;;;8.07;;
26594;SDS011;14238;49.496;8.154;2023-05-23T12:01:02;9.03;;;8.33;;
26594;SDS011;14238;49.496;8.154;2023-05-23T12:03:32;8.47;;;7.97;;
26594;SDS011;14238;49.496;8.154;2023-05-23T12:05:58;9.40;;;8.70;;
26594;SDS011;14238;49.496;8.154;2023-05-23T12:08:25;9.30;;;8.50;;
26594;SDS011;14238;49.496;8.154;2023-05-23T12:10:52;9.27;;;8.57;;
26594;SDS011;14238;49.496;8.154;2023-05-23T12:13:28;10.10;;;9.20;;
26594;SDS011;14238;49.496;8.154;2023-05-23T12:15:58;9.20;;;8.50;;
26594;SDS011;14238;49.496;8.154;2023-05-23T12:18:29;9.47;;;8.63;;
26594;SDS011;14238;49.496;8.154;2023-05-23T12:20:59;11.70;;;8.80;;
26594;SDS011;14238;49.496;8.154;2023-05-23T12:23:30;9.10;;;8.30;;
26594;SDS011;14238;49.496;8.154;2023-05-23T12:25:56;8.60;;;8.00;;
26594;SDS011;14238;49.496;8.154;2023-05-23T12:28:35;8.13;;;7.57;;
26594;SDS011;14238;49.496;8.154;2023-05-23T12:33:39;13.30;;;9.10;;
26594;SDS011;14238;49.496;8.154;2023-05-23T12:36:07;8.20;;;7.60;;
26594;SDS011;14238;49.496;8.154;2023-05-23T12:38:33;9.23;;;8.53;;
26594;SDS011;14238;49.496;8.154;2023-05-23T12:41:17;10.80;;;9.80;;
26594;SDS011;14238;49.496;8.154;2023-05-23T12:43:50;9.97;;;9.17;;
26594;SDS011;14238;49.496;8.154;2023-05-23T12:46:16;9.97;;;9.27;;
26594;SDS011;14238;49.496;8.154;2023-05-23T12:48:42;9.13;;;8.53;;
26594;SDS011;14238;49.496;8.154;2023-05-23T12:51:08;9.53;;;8.87;;
26594;SDS011;14238;49.496;8.154;2023-05-23T12:53:33;13.20;;;12.10;;
26594;SDS011;14238;49.496;8.154;2023-05-23T12:56:00;12.73;;;11.40;;
26594;SDS011;14238;49.496;8.154;2023-05-23T12:58:25;12.47;;;11.47;;
26594;SDS011;14238;49.496;8.154;2023-05-23T13:00:51;12.80;;;11.80;;
26594;SDS011;14238;49.496;8.154;2023-05-23T13:03:17;13.30;;;12.27;;
26594;SDS011;14238;49.496;8.154;2023-05-23T13:05:42;15.03;;;13.83;;
26594;SDS011;14238;49.496;8.154;2023-05-23T13:08:08;13.73;;;12.63;;
26594;SDS011;14238;49.496;8.154;2023-05-23T13:10:36;14.67;;;13.47;;
26594;SDS011;14238;49.496;8.154;2023-05-23T13:13:02;11.40;;;10.60;;
26594;SDS011;14238;49.496;8.154;2023-05-23T13:15:28;12.83;;;11.73;;
26594;SDS011;14238;49.496;8.154;2023-05-23T13:17:53;11.50;;;10.60;;
26594;SDS011;14238;49.496;8.154;2023-05-23T13:20:19;10.77;;;10.07;;
26594;SDS011;14238;49.496;8.154;2023-05-23T13:22:46;9.90;;;9.20;;
26594;SDS011;14238;49.496;8.154;2023-05-23T13:25:11;10.10;;;9.40;;
26594;SDS011;14238;49.496;8.154;2023-05-23T13:27:37;9.10;;;8.50;;
26594;SDS011;14238;49.496;8.154;2023-05-23T13:30:03;8.77;;;8.10;;
26594;SDS011;14238;49.496;8.154;2023-05-23T13:32:29;7.80;;;7.20;;
26594;SDS011;14238;49.496;8.154;2023-05-23T13:34:55;7.90;;;7.40;;
26594;SDS011;14238;49.496;8.154;2023-05-23T13:37:21;8.37;;;7.80;;
26594;SDS011;14238;49.496;8.154;2023-05-23T13:39:46;8.70;;;8.10;;
26594;SDS011;14238;49.496;8.154;2023-05-23T13:42:12;9.50;;;8.80;;
26594;SDS011;14238;49.496;8.154;2023-05-23T13:44:37;9.67;;;9.00;;
26594;SDS011;14238;49.496;8.154;2023-05-23T13:47:09;8.10;;;7.60;;
26594;SDS011;14238;49.496;8.154;2023-05-23T13:49:36;11.07;;;10.27;;
26594;SDS011;14238;49.496;8.154;2023-05-23T13:52:01;11.27;;;10.47;;
26594;SDS011;14238;49.496;8.154;2023-05-23T13:54:27;11.37;;;10.37;;
26594;SDS011;14238;49.496;8.154;2023-05-23T13:56:52;11.23;;;10.53;;
26594;SDS011;14238;49.496;8.154;2023-05-23T13:59:18;11.77;;;10.87;;
26594;SDS011;14238;49.496;8.154;2023-05-23T14:01:45;10.43;;;9.73;;
26594;SDS011;14238;49.496;8.154;2023-05-23T14:04:11;12.30;;;11.40;;
26594;SDS011;14238;49.496;8.154;2023-05-23T14:06:37;14.50;;;13.43;;
26594;SDS011;14238;49.496;8.154;2023-05-23T14:09:03;14.77;;;13.57;;
26594;SDS011;14238;49.496;8.154;2023-05-23T14:11:29;14.10;;;13.10;;
26594;SDS011;14238;49.496;8.154;2023-05-23T14:13:54;14.77;;;13.57;;
26594;SDS011;14238;49.496;8.154;2023-05-23T14:16:20;14.00;;;13.00;;
26594;SDS011;14238;49.496;8.154;2023-05-23T14:18:45;14.10;;;12.90;;
26594;SDS011;14238;49.496;8.154;2023-05-23T14:21:11;14.10;;;13.07;;
26594;SDS011;14238;49.496;8.154;2023-05-23T14:23:37;13.33;;;12.33;;
26594;SDS011;14238;49.496;8.154;2023-05-23T14:26:02;13.70;;;12.40;;
26594;SDS011;14238;49.496;8.154;2023-05-23T14:28:28;12.00;;;11.20;;
26594;SDS011;14238;49.496;8.154;2023-05-23T14:30:53;13.83;;;12.80;;
26594;SDS011;14238;49.496;8.154;2023-05-23T14:33:20;13.23;;;12.27;;
26594;SDS011;14238;49.496;8.154;2023-05-23T14:35:45;14.10;;;13.00;;
26594;SDS011;14238;49.496;8.154;2023-05-23T14:38:11;12.50;;;11.50;;
26594;SDS011;14238;49.496;8.154;2023-05-23T14:40:38;14.10;;;12.80;;
26594;SDS011;14238;49.496;8.154;2023-05-23T14:43:03;14.73;;;13.43;;
26594;SDS011;14238;49.496;8.154;2023-05-23T14:45:29;13.53;;;12.40;;